Holly Pond, Alabama
Current Conditions -  °F | °C
As of 2:35 AM on Friday 21 Nov 2014 (Local Time) from KCMD Reporting Station
Clear Clear  
Wind Chill: 32°   Ceiling: Unl
Heat Index: 32°   Visibility: 10mi
Dew Point: 31°   Wind: 0mph
Humidity: 94%   Direction: NA
Pressure: 30.3"   Gusts: NA
Location:  34.17°N, 86.62°W
Report Text: KCMD 210835Z AUTO 00000KT 10SM CLR 00/M01 A3030 RMK AO2 T00021006
Loading
Personal Weather Stations






























Interactive Weather Map New forecast layout! Learn more

10-Day Weather Forecast

Advertisements
Track Severe Weather on mobile